Latest Weather Observations for Laverton

IDV60801

Issued at 4:52 pm EDT Thursday 28 January 2021 (issued every 10 minutes, with the page automatically refreshed every 10 minutes)

About weather observations | Map of weather stations | Latest weather observations for VIC | Other Formats
Station Details ID: 087031 Name: LAVERTON RAAF Lat: -37.86 Lon: 144.76 Height: 20.1 m
Data from the previous 72 hours. | See also: Recent months at Laverton
Date/Time
EDT
Temp
°C
App
Temp
°C
Dew
Point
°C
Rel
Hum
%
Delta-T
°C
Wind Press
QNH
hPa
Press
MSL
hPa
Rain since
9am
mm
Dir  Spd
km/h
Gust
km/h
Spd
kts
Gust
kts
28/04:30pm 22.4 21.1 15.7 66 4.0 ESE 17 24 9 13 1014.9 1014.8 0.0
28/04:00pm 23.4 21.0 14.4 57 5.3 ESE 20 30 11 16 1014.9 1014.8 0.0
28/03:30pm 23.4 21.1 14.7 58 5.2 ESE 20 32 11 17 1015.0 1014.9 0.0
28/03:00pm 24.7 21.6 14.5 53 6.1 ESE 24 35 13 19 1015.2 1015.1 0.0
28/02:30pm 24.9 22.3 15.0 54 5.9 ESE 22 30 12 16 1015.3 1015.2 0.0
28/02:00pm 23.8 21.6 14.8 57 5.4 ESE 20 28 11 15 1015.4 1015.3 0.0
28/01:30pm 23.7 21.3 14.4 56 5.5 ESE 20 28 11 15 1015.8 1015.7 0.0
28/01:00pm 23.9 22.8 14.3 55 5.7 ESE 13 22 7 12 1016.5 1016.4 0.0
28/12:30pm 23.4 22.1 13.8 54 5.6 ESE 13 19 7 10 1016.6 1016.5 0.0
28/12:00pm 23.3 22.1 14.0 56 5.4 ESE 13 19 7 10 1016.7 1016.6 0.0
28/11:30am 22.8 21.9 13.6 56 5.3 ESE 11 19 6 10 1017.2 1017.1 0.0
28/11:00am 22.3 21.0 13.6 58 5.0 ESE 13 20 7 11 1017.3 1017.2 0.0
28/10:30am 21.5 20.1 13.4 60 4.7 ESE 13 22 7 12 1017.3 1017.2 0.0
28/10:00am 21.3 19.6 13.5 61 4.5 ESE 15 20 8 11 1017.4 1017.3 0.0
28/09:30am 20.3 18.2 13.5 65 3.9 ESE 17 24 9 13 1017.7 1017.6 0.0
28/09:00am 20.1 18.4 13.6 66 3.7 ESE 15 22 8 12 1017.4 1017.3 0.2
28/08:30am 19.2 17.7 13.2 68 3.4 ESE 13 20 7 11 1017.4 1017.3 0.2
28/08:00am 19.0 17.9 13.0 68 3.4 ESE 11 17 6 9 1017.0 1016.9 0.2
28/07:30am 18.1 17.0 13.0 72 2.9 ESE 11 15 6 8 1016.8 1016.7 0.2
28/07:00am 17.5 16.7 12.8 74 2.6 ESE 9 13 5 7 1016.7 1016.6 0.2
28/06:30am 17.5 15.9 12.8 74 2.6 ESE 13 19 7 10 1016.5 1016.4 0.2
28/06:00am 17.2 16.0 12.9 76 2.4 ESE 11 19 6 10 1016.1 1016.0 0.2
28/05:30am 17.0 15.4 12.7 76 2.4 ESE 13 20 7 11 1015.7 1015.6 0.2
28/05:00am 17.3 15.3 12.8 75 2.5 ESE 15 22 8 12 1015.5 1015.4 0.2
28/04:30am 17.4 14.6 12.7 74 2.6 ESE 19 32 10 17 1015.3 1015.2 0.2
28/04:00am 17.5 15.1 12.8 74 2.6 ESE 17 24 9 13 1015.3 1015.2 0.2
28/03:30am 17.3 14.9 12.8 75 2.5 ESE 17 24 9 13 1015.3 1015.2 0.2
28/03:00am 17.5 15.6 13.0 75 2.5 ESE 15 22 8 12 1015.4 1015.3 0.2
28/02:30am 17.4 14.8 13.1 76 2.4 ESE 19 30 10 16 1015.5 1015.4 0.2
28/02:00am 17.4 15.1 12.9 75 2.5 ESE 17 26 9 14 1015.2 1015.1 0.2
28/01:30am 17.3 13.6 12.8 75 2.5 ESE 24 33 13 18 1015.3 1015.2 0.2
28/01:00am 17.2 14.0 13.1 77 2.3 ESE 22 39 12 21 1015.5 1015.4 0.2
28/12:30am 17.5 14.0 13.4 77 2.3 ESE 24 35 13 19 1015.1 1015.0 0.2
28/12:00am 17.7 13.5 13.4 76 2.4 ESE 28 43 15 23 1015.2 1015.1 0.2
 
Date/Time
EDT
Temp
°C
App
Temp
°C
Dew
Point
°C
Rel
Hum
%
Delta-T
°C
Wind Press
QNH
hPa
Press
MSL
hPa
Rain since
9am
mm
Dir  Spd
km/h
Gust
km/h
Spd
kts
Gust
kts
27/11:30pm 17.9 14.1 13.6 76 2.4 ESE 26 46 14 25 1015.4 1015.3 0.2
27/11:06pm 18.3 14.1 13.6 74 2.7 ESE 28 48 15 26 1015.4 1015.3 0.2
27/11:00pm 18.3 14.4 13.4 73 2.8 ESE 26 41 14 22 1015.4 1015.3 0.2
27/10:30pm 18.8 14.2 13.4 71 3.1 ESE 30 52 16 28 1015.4 1015.3 0.2
27/10:00pm 19.4 14.4 13.3 68 3.5 ESE 32 50 17 27 1015.0 1014.9 0.2
27/09:42pm 19.7 14.9 12.9 65 3.8 ESE 30 48 16 26 1014.8 1014.7 0.2
27/09:30pm 19.8 14.5 12.6 63 4.0 ESE 32 48 17 26 1014.4 1014.3 0.2
27/09:00pm 20.2 14.8 12.2 60 4.5 ESE 32 52 17 28 1014.1 1014.0 0.2
27/08:38pm 20.8 15.9 12.5 59 4.7 ESE 30 48 16 26 1013.7 1013.6 0.2
27/08:30pm 20.9 15.4 11.8 56 5.1 ESE 32 48 17 26 1013.5 1013.4 0.2
27/08:14pm 21.6 16.6 12.2 55 5.3 SE 30 48 16 26 1013.4 1013.3 0.2
27/08:00pm 22.1 16.6 11.8 52 5.8 SE 32 44 17 24 1013.4 1013.3 0.2
27/07:30pm 23.1 18.3 11.8 49 6.4 SE 28 43 15 23 1013.5 1013.4 0.2
27/07:00pm 23.9 19.2 10.6 43 7.4 SE 26 39 14 21 1013.4 1013.3 0.2
27/06:30pm 23.1 19.1 13.0 53 5.8 S 26 33 14 18 1013.3 1013.2 0.2
27/06:00pm 22.3 17.8 12.5 53 5.6 SSW 28 37 15 20 1013.3 1013.2 0.2
27/05:30pm 22.1 17.8 13.2 57 5.1 S 28 37 15 20 1013.9 1013.8 0.2
27/05:00pm 21.5 16.3 12.9 58 4.9 SSW 32 44 17 24 1014.3 1014.2 0.2
27/04:30pm 21.4 16.6 12.8 58 4.9 S 30 41 16 22 1014.8 1014.7 0.2
27/04:00pm 21.7 16.1 12.0 54 5.4 S 33 43 18 23 1014.6 1014.5 0.2
27/03:30pm 21.3 16.3 11.1 52 5.6 S 28 39 15 21 1015.1 1015.0 0.2
27/03:00pm 21.3 16.7 11.1 52 5.6 S 26 35 14 19 1015.6 1015.5 0.2
27/02:30pm 21.1 16.7 10.3 50 5.9 S 24 39 13 21 1015.8 1015.7 0.2
27/02:00pm 20.1 15.3 10.2 53 5.3 SSE 26 37 14 20 1016.1 1016.0 0.2
27/01:30pm 19.7 15.4 9.3 51 5.5 S 22 37 12 20 1016.1 1016.0 0.2
27/01:00pm 20.1 16.0 8.8 48 5.9 SSE 20 35 11 19 1016.3 1016.2 0.2
27/12:30pm 18.9 14.5 8.8 52 5.3 SSE 22 33 12 18 1016.5 1016.4 0.2
27/12:00pm 18.7 14.4 7.8 49 5.6 SSE 20 33 11 18 1016.9 1016.8 0.2
27/11:30am 18.1 13.9 8.1 52 5.1 SSE 20 33 11 18 1017.3 1017.2 0.2
27/11:00am 18.3 13.7 8.0 51 5.3 SSE 22 33 12 18 1016.9 1016.8 0.2
27/10:30am 16.8 12.0 7.2 53 4.8 SE 22 35 12 19 1016.8 1016.7 0.2
27/10:00am 16.4 12.0 6.5 52 4.8 SSE 19 32 10 17 1017.1 1017.0 0.0
27/09:30am 16.5 12.1 7.4 55 4.5 SE 20 30 11 16 1016.7 1016.6 0.0
27/09:00am 15.8 11.2 6.3 53 4.6 SE 20 30 11 16 1016.7 1016.6 0.0
27/08:30am 15.2 10.5 6.2 55 4.3 SE 20 32 11 17 1016.3 1016.2 0.0
27/08:00am 15.1 10.8 6.9 58 4.0 SE 19 32 10 17 1016.2 1016.1 0.0
27/07:30am 14.9 9.8 6.0 55 4.3 SSE 22 37 12 20 1015.8 1015.7 0.0
27/07:00am 14.8 10.9 7.1 60 3.8 SE 17 24 9 13 1015.5 1015.4 0.0
27/06:30am 14.7 11.1 6.8 59 3.8 SE 15 24 8 13 1015.2 1015.1 0.0
27/06:00am 14.7 10.0 6.0 56 4.2 SSE 20 32 11 17 1014.7 1014.6 0.0
27/05:30am 14.7 10.1 6.5 58 4.0 SSE 20 30 11 16 1014.3 1014.2 0.0
27/05:00am 14.5 10.4 6.3 58 3.9 SSE 17 26 9 14 1013.9 1013.8 0.0
27/04:30am 14.5 9.9 6.3 58 3.9 SSE 20 28 11 15 1013.7 1013.6 0.0
27/04:00am 14.6 10.3 6.9 60 3.8 SSE 19 28 10 15 1013.7 1013.6 0.0
27/03:30am 14.6 10.3 6.9 60 3.8 SE 19 26 10 14 1013.7 1013.6 0.0
27/03:00am 14.6 10.2 6.7 59 3.8 SSE 19 28 10 15 1013.7 1013.6 0.0
27/02:30am 14.5 10.5 6.6 59 3.8 S 17 24 9 13 1013.8 1013.7 0.0
27/02:00am 14.7 10.2 7.0 60 3.8 SSE 20 32 11 17 1013.6 1013.5 0.0
27/01:30am 14.5 10.2 6.8 60 3.7 S 19 28 10 15 1013.1 1013.0 0.0
27/01:00am 15.0 10.6 7.3 60 3.8 S 20 32 11 17 1013.3 1013.2 0.0
27/12:30am 15.2 10.7 8.7 65 3.3 SSE 22 32 12 17 1013.1 1013.0 0.0
27/12:00am 15.6 11.2 8.8 64 3.5 SSE 22 33 12 18 1012.8 1012.7 0.0
 
Date/Time
EDT
Temp
°C
App
Temp
°C
Dew
Point
°C
Rel
Hum
%
Delta-T
°C
Wind Press
QNH
hPa
Press
MSL
hPa
Rain since
9am
mm
Dir  Spd
km/h
Gust
km/h
Spd
kts
Gust
kts
26/11:30pm 15.8 11.0 9.0 64 3.5 S 24 33 13 18 1012.5 1012.4 0.0
26/11:00pm 15.8 11.5 9.2 65 3.4 S 22 33 12 18 1012.3 1012.2 0.0
26/10:30pm 16.0 11.5 9.9 67 3.2 SSE 24 33 13 18 1012.3 1012.2 0.0
26/10:00pm 16.2 11.8 10.5 69 3.0 S 24 35 13 19 1011.9 1011.8 0.0
26/09:30pm 16.3 11.7 11.0 71 2.8 SSE 26 41 14 22 1011.3 1011.3 0.0
26/09:00pm 16.7 12.9 11.0 69 3.1 SSE 22 35 12 19 1010.8 1010.8 0.0
26/08:30pm 16.9 13.2 11.4 70 3.0 SSE 22 35 12 19 1010.3 1010.3 0.0
26/08:00pm 17.1 13.0 11.6 70 3.0 SSE 24 35 13 19 1009.7 1009.7 0.0
26/07:30pm 17.5 13.2 12.2 71 2.9 S 26 41 14 22 1009.1 1009.1 0.0
26/07:00pm 18.1 13.4 11.9 67 3.4 S 28 41 15 22 1008.4 1008.4 0.0
26/06:30pm 19.3 14.5 11.6 61 4.2 S 28 41 15 22 1008.0 1008.0 0.0
26/06:00pm 18.9 15.3 11.7 63 4.0 S 22 35 12 19 1007.6 1007.6 0.0
26/05:30pm 19.2 15.1 11.3 60 4.3 SSE 24 39 13 21 1007.3 1007.3 0.0
26/05:00pm 18.9 15.2 11.5 62 4.1 SSE 22 33 12 18 1007.0 1007.0 0.0
26/04:30pm 18.8 14.9 12.1 65 3.7 S 24 32 13 17 1006.7 1006.7 0.0
26/04:00pm 18.6 14.6 11.9 65 3.7 SSE 24 30 13 16 1006.5 1006.5 0.0
26/03:30pm 19.0 16.2 12.5 66 3.6 S 19 28 10 15 1006.3 1006.3 0.0
26/03:00pm 18.8 15.3 12.3 66 3.6 S 22 32 12 17 1006.3 1006.3 0.0
26/02:30pm 18.8 15.6 13.2 70 3.2 SSW 22 33 12 18 1006.0 1006.0 0.0
26/02:00pm 18.5 15.9 13.8 74 2.7 S 20 35 11 19 1006.0 1006.0 0.0
26/01:30pm 18.0 15.8 14.5 80 2.0 S 19 28 10 15 1005.7 1005.7 0.0
26/01:04pm 17.0 14.1 15.0 88 1.2 S 24 35 13 19 1005.6 1005.6 0.0
26/01:00pm 17.4 14.9 15.2 87 1.3 S 22 33 12 18 1005.4 1005.4 0.0
26/12:30pm 17.4 14.0 14.7 84 1.6 SSW 26 41 14 22 1005.2 1005.2 0.0
26/12:26pm 17.4 14.3 14.5 83 1.7 SSW 24 41 13 22 1005.1 1005.1 0.0
26/12:24pm 17.5 14.4 14.6 83 1.7 SSW 24 41 13 22 1005.1 1005.1 0.0
26/12:00pm 17.1 14.3 15.4 90 1.0 S 24 32 13 17 1004.8 1004.8 0.0
26/11:47am 17.2 14.7 15.2 88 1.2 SSW 22 32 12 17 1004.5 1004.5 0.0
26/11:30am 17.8 14.5 15.1 84 1.6 SSW 26 33 14 18 1004.3 1004.3 0.0
26/11:00am 17.6 15.7 15.8 89 1.1 SSW 20 32 11 17 1003.8 1003.8 0.0
26/10:33am 18.1 16.0 16.1 88 1.2 SSW 22 30 12 16 1003.7 1003.7 0.0
26/10:30am 18.1 16.0 16.1 88 1.2 S 22 30 12 16 1003.7 1003.7 0.0
26/10:04am 18.1 15.4 16.6 91 0.9 SSW 26 33 14 18 1003.3 1003.3 0.0
26/10:00am 18.2 16.4 16.9 92 0.8 SSW 22 33 12 18 1003.2 1003.2 0.0
26/09:30am 17.9 16.9 17.9 100 0.0 S 20 26 11 14 1002.8 1002.8 0.0
26/09:21am 17.7 17.2 17.7 100 0.0 S 17 26 9 14 1002.7 1002.7 0.0
26/09:20am 17.8 17.3 17.8 100 0.0 S 17 24 9 13 1002.7 1002.7 0.0
26/09:14am 17.7 17.2 17.7 100 0.0 S 17 24 9 13 1002.7 1002.7 0.0
26/09:00am 17.4 16.7 17.4 100 0.0 SSW 17 24 9 13 1002.5 1002.5 1.6
26/08:30am 17.5 16.5 17.5 100 0.0 SSW 19 28 10 15 1002.3 1002.3 1.4
26/08:15am 17.7 16.8 17.7 100 0.0 SSW 19 24 10 13 1001.9 1001.9 1.2
26/08:00am 17.7 16.2 17.7 100 0.0 SSW 22 33 12 18 1001.5 1001.5 1.2
26/07:34am 17.7 16.6 17.7 100 0.0 SSW 20 24 11 13 1001.0 1001.0 1.2
26/07:30am 17.8 16.7 17.8 100 0.0 SSW 20 26 11 14 1000.9 1000.9 1.2
26/07:21am 17.9 17.4 17.9 100 0.0 SSW 17 28 9 15 1000.8 1000.8 0.8
26/07:16am 17.9 17.4 17.9 100 0.0 SSW 17 24 9 13 1000.8 1000.8 0.8
26/07:00am 18.0 17.6 18.0 100 0.0 SSW 17 24 9 13 1000.3 1000.3 0.8
26/06:30am 18.0 18.0 18.0 100 0.0 SSW 15 22 8 12 999.7 999.7 0.6
26/06:01am 18.3 17.6 18.3 100 0.0 SSW 19 26 10 14 999.2 999.2 0.0
26/06:00am 18.3 17.6 18.3 100 0.0 SSW 19 26 10 14 999.1 999.1 0.0
26/05:30am 18.4 17.6 18.4 100 0.0 SSW 20 28 11 15 998.4 998.4 0.0
26/05:01am 19.7 19.7 18.9 95 0.5 SW 17 28 9 15 997.5 997.5 0.0
26/05:00am 19.8 19.7 18.8 94 0.6 WSW 17 28 9 15 997.4 997.4 0.0
26/04:30am 20.6 21.2 17.6 83 1.8 WSW 11 17 6 9 997.1 997.1 0.0
26/04:00am 20.7 22.5 17.5 82 2.0 NE 4 7 2 4 996.9 996.9 0.0
26/03:30am 20.8 22.1 17.2 80 2.2 NE 6 7 3 4 997.2 997.2 0.0
26/03:00am 20.5 21.3 17.3 82 2.0 ENE 9 13 5 7 997.4 997.4 0.0
26/02:30am 19.9 21.0 17.1 84 1.7 SSE 7 9 4 5 997.7 997.7 0.0
26/02:00am 20.3 21.6 17.1 82 2.0 S 6 13 3 7 998.0 998.0 0.0
26/01:30am 20.5 21.7 16.9 80 2.2 WSW 6 9 3 5 998.6 998.6 0.0
26/01:00am 20.4 22.7 16.8 80 2.2 CALM 0 6 0 3 999.2 999.2 0.0
26/12:30am 20.7 21.7 16.9 79 2.3 NNW 7 11 4 6 999.6 999.6 0.0
26/12:00am 20.1 21.3 17.3 84 1.7 NNE 7 13 4 7 999.0 999.0 0.0
 
Date/Time
EDT
Temp
°C
App
Temp
°C
Dew
Point
°C
Rel
Hum
%
Delta-T
°C
Wind Press
QNH
hPa
Press
MSL
hPa
Rain since
9am
mm
Dir  Spd
km/h
Gust
km/h
Spd
kts
Gust
kts
25/11:30pm 20.2 21.5 17.2 83 1.8 NNW 6 9 3 5 1000.0 1000.0 0.0
25/11:00pm 20.6 20.8 16.8 79 2.3 N 11 17 6 9 1000.5 1000.5 0.0
25/10:30pm 20.7 21.8 17.1 80 2.2 NW 7 13 4 7 1000.6 1000.6 0.0
25/10:00pm 20.6 21.7 17.2 81 2.1 W 7 15 4 8 1001.0 1001.0 0.0
25/09:30pm 20.6 20.6 17.2 81 2.1 SSW 13 20 7 11 1000.8 1000.8 0.0
25/09:00pm 21.3 19.7 16.5 74 2.9 SW 20 30 11 16 1000.6 1000.6 0.0
25/08:30pm 21.2 18.9 16.6 75 2.8 SW 24 33 13 18 1000.0 1000.0 0.0
25/08:00pm 21.2 19.8 16.6 75 2.8 S 19 24 10 13 999.1 999.1 0.0
25/07:30pm 21.6 20.1 16.3 72 3.2 SSE 19 24 10 13 998.7 998.7 0.0
25/07:00pm 22.3 20.2 16.1 68 3.8 SSW 22 28 12 15 999.3 999.3 0.0
25/06:30pm 23.3 20.9 15.4 61 4.7 S 22 30 12 16 998.8 998.8 0.0
25/06:00pm 24.4 22.3 15.3 57 5.5 S 20 28 11 15 999.2 999.2 0.0
25/05:30pm 24.5 21.6 15.1 55 5.6 S 24 41 13 22 999.5 999.5 0.0
25/05:00pm 24.9 21.5 14.7 53 6.1 SSW 26 37 14 20 999.8 999.8 0.0

Other formats

Comma delimited format used in spreadsheet applications
http://www.bom.gov.au/fwo/IDV60801/IDV60801.94865.axf

JavaScript Object Notation format (JSON) in row-major order
http://www.bom.gov.au/fwo/IDV60801/IDV60801.94865.json

Data quality

Most of these data are generated automatically and are frequently updated. Quality checks on data are not normally performed. It is possible for incorrect values to appear. Refer to information at About Latest Weather Observations and please check the disclaimer before using these data.